sensor_id;sensor_type;location;lat;lon;timestamp;P1;durP1;ratioP1;P2;durP2;ratioP2
53519;SDS011;39397;53.204;5.778;2024-03-22T00:01:53;42.80;;;27.25;;
53519;SDS011;39397;53.204;5.778;2024-03-22T00:04:19;44.67;;;28.10;;
53519;SDS011;39397;53.204;5.778;2024-03-22T00:06:46;45.60;;;27.70;;
53519;SDS011;39397;53.204;5.778;2024-03-22T00:09:13;46.85;;;28.38;;
53519;SDS011;39397;53.204;5.778;2024-03-22T00:11:40;46.15;;;28.50;;
53519;SDS011;39397;53.204;5.778;2024-03-22T00:14:06;47.75;;;28.85;;
53519;SDS011;39397;53.204;5.778;2024-03-22T00:16:32;51.95;;;28.88;;
53519;SDS011;39397;53.204;5.778;2024-03-22T00:18:58;52.85;;;29.33;;
53519;SDS011;39397;53.204;5.778;2024-03-22T00:21:24;47.08;;;26.80;;
53519;SDS011;39397;53.204;5.778;2024-03-22T00:23:50;49.63;;;29.15;;
53519;SDS011;39397;53.204;5.778;2024-03-22T00:26:16;50.00;;;29.60;;
53519;SDS011;39397;53.204;5.778;2024-03-22T00:28:42;55.35;;;30.35;;
53519;SDS011;39397;53.204;5.778;2024-03-22T00:31:08;54.67;;;30.20;;
53519;SDS011;39397;53.204;5.778;2024-03-22T00:33:34;58.90;;;30.00;;
53519;SDS011;39397;53.204;5.778;2024-03-22T00:36:00;55.45;;;32.17;;
53519;SDS011;39397;53.204;5.778;2024-03-22T00:38:26;53.65;;;30.33;;
53519;SDS011;39397;53.204;5.778;2024-03-22T00:40:51;56.55;;;32.45;;
53519;SDS011;39397;53.204;5.778;2024-03-22T00:43:17;56.20;;;32.30;;
53519;SDS011;39397;53.204;5.778;2024-03-22T00:45:43;63.03;;;32.47;;
53519;SDS011;39397;53.204;5.778;2024-03-22T00:48:08;60.80;;;32.63;;
53519;SDS011;39397;53.204;5.778;2024-03-22T00:50:34;61.75;;;30.92;;
53519;SDS011;39397;53.204;5.778;2024-03-22T00:53:00;62.13;;;33.78;;
53519;SDS011;39397;53.204;5.778;2024-03-22T00:55:28;64.25;;;32.17;;
53519;SDS011;39397;53.204;5.778;2024-03-22T00:57:53;63.00;;;33.20;;
53519;SDS011;39397;53.204;5.778;2024-03-22T01:00:19;60.80;;;33.35;;
53519;SDS011;39397;53.204;5.778;2024-03-22T01:02:45;63.60;;;34.17;;
53519;SDS011;39397;53.204;5.778;2024-03-22T01:05:10;62.58;;;33.33;;
53519;SDS011;39397;53.204;5.778;2024-03-22T01:07:36;60.58;;;32.00;;
53519;SDS011;39397;53.204;5.778;2024-03-22T01:10:03;65.47;;;32.42;;
53519;SDS011;39397;53.204;5.778;2024-03-22T01:12:29;60.85;;;30.52;;
53519;SDS011;39397;53.204;5.778;2024-03-22T01:14:56;59.05;;;32.05;;
53519;SDS011;39397;53.204;5.778;2024-03-22T01:17:23;60.05;;;32.17;;
53519;SDS011;39397;53.204;5.778;2024-03-22T01:19:50;60.17;;;31.60;;
53519;SDS011;39397;53.204;5.778;2024-03-22T01:22:17;61.58;;;31.95;;
53519;SDS011;39397;53.204;5.778;2024-03-22T01:24:44;59.38;;;34.38;;
53519;SDS011;39397;53.204;5.778;2024-03-22T01:27:10;65.00;;;33.85;;
53519;SDS011;39397;53.204;5.778;2024-03-22T01:29:35;59.78;;;31.52;;
53519;SDS011;39397;53.204;5.778;2024-03-22T01:32:02;55.38;;;29.80;;
53519;SDS011;39397;53.204;5.778;2024-03-22T01:34:27;56.00;;;31.35;;
53519;SDS011;39397;53.204;5.778;2024-03-22T01:36:53;60.90;;;31.85;;
53519;SDS011;39397;53.204;5.778;2024-03-22T01:39:19;54.50;;;31.73;;
53519;SDS011;39397;53.204;5.778;2024-03-22T01:41:49;61.70;;;33.28;;
53519;SDS011;39397;53.204;5.778;2024-03-22T01:44:15;57.17;;;31.60;;
53519;SDS011;39397;53.204;5.778;2024-03-22T01:46:41;57.92;;;31.75;;
53519;SDS011;39397;53.204;5.778;2024-03-22T01:49:09;58.67;;;30.23;;
53519;SDS011;39397;53.204;5.778;2024-03-22T01:51:37;61.75;;;33.15;;
53519;SDS011;39397;53.204;5.778;2024-03-22T01:54:03;62.45;;;30.58;;
53519;SDS011;39397;53.204;5.778;2024-03-22T01:56:29;54.90;;;30.88;;
53519;SDS011;39397;53.204;5.778;2024-03-22T01:58:56;51.20;;;31.08;;
53519;SDS011;39397;53.204;5.778;2024-03-22T02:01:22;52.47;;;30.13;;
53519;SDS011;39397;53.204;5.778;2024-03-22T02:03:48;52.65;;;30.45;;
53519;SDS011;39397;53.204;5.778;2024-03-22T02:06:13;55.90;;;30.40;;
53519;SDS011;39397;53.204;5.778;2024-03-22T02:08:40;50.70;;;27.35;;
53519;SDS011;39397;53.204;5.778;2024-03-22T02:11:07;54.45;;;28.33;;
53519;SDS011;39397;53.204;5.778;2024-03-22T02:13:34;46.42;;;26.67;;
53519;SDS011;39397;53.204;5.778;2024-03-22T02:16:02;53.92;;;30.13;;
53519;SDS011;39397;53.204;5.778;2024-03-22T02:18:28;54.50;;;28.85;;
53519;SDS011;39397;53.204;5.778;2024-03-22T02:20:54;52.15;;;28.58;;
53519;SDS011;39397;53.204;5.778;2024-03-22T02:23:26;56.72;;;28.98;;
53519;SDS011;39397;53.204;5.778;2024-03-22T02:26:02;53.50;;;28.92;;
53519;SDS011;39397;53.204;5.778;2024-03-22T02:28:29;54.90;;;29.98;;
53519;SDS011;39397;53.204;5.778;2024-03-22T02:30:57;58.17;;;30.58;;
53519;SDS011;39397;53.204;5.778;2024-03-22T02:33:23;56.85;;;29.42;;
53519;SDS011;39397;53.204;5.778;2024-03-22T02:35:49;55.53;;;30.95;;
53519;SDS011;39397;53.204;5.778;2024-03-22T02:38:15;58.95;;;30.33;;
53519;SDS011;39397;53.204;5.778;2024-03-22T02:40:44;63.45;;;31.23;;
53519;SDS011;39397;53.204;5.778;2024-03-22T02:43:11;53.38;;;29.83;;
53519;SDS011;39397;53.204;5.778;2024-03-22T02:45:37;55.05;;;30.17;;
53519;SDS011;39397;53.204;5.778;2024-03-22T02:48:03;61.55;;;30.63;;
53519;SDS011;39397;53.204;5.778;2024-03-22T02:50:33;57.03;;;29.45;;
53519;SDS011;39397;53.204;5.778;2024-03-22T02:52:59;55.38;;;28.50;;
53519;SDS011;39397;53.204;5.778;2024-03-22T02:55:25;54.60;;;28.58;;
53519;SDS011;39397;53.204;5.778;2024-03-22T02:57:50;57.28;;;30.42;;
53519;SDS011;39397;53.204;5.778;2024-03-22T03:00:16;54.65;;;29.75;;
53519;SDS011;39397;53.204;5.778;2024-03-22T03:02:43;58.42;;;29.75;;
53519;SDS011;39397;53.204;5.778;2024-03-22T03:05:09;55.30;;;28.75;;
53519;SDS011;39397;53.204;5.778;2024-03-22T03:07:35;57.42;;;29.08;;
53519;SDS011;39397;53.204;5.778;2024-03-22T03:10:00;57.33;;;29.25;;
53519;SDS011;39397;53.204;5.778;2024-03-22T03:12:26;56.42;;;27.70;;
53519;SDS011;39397;53.204;5.778;2024-03-22T03:14:52;60.25;;;29.48;;
53519;SDS011;39397;53.204;5.778;2024-03-22T03:17:17;59.70;;;31.52;;
53519;SDS011;39397;53.204;5.778;2024-03-22T03:19:44;60.25;;;28.55;;
53519;SDS011;39397;53.204;5.778;2024-03-22T03:22:09;53.47;;;28.92;;
53519;SDS011;39397;53.204;5.778;2024-03-22T03:24:35;53.53;;;28.15;;
53519;SDS011;39397;53.204;5.778;2024-03-22T03:27:01;62.47;;;28.52;;
53519;SDS011;39397;53.204;5.778;2024-03-22T03:29:27;60.85;;;29.90;;
53519;SDS011;39397;53.204;5.778;2024-03-22T03:31:53;57.72;;;28.25;;
53519;SDS011;39397;53.204;5.778;2024-03-22T03:34:19;55.67;;;28.15;;
53519;SDS011;39397;53.204;5.778;2024-03-22T03:36:45;54.67;;;27.45;;
53519;SDS011;39397;53.204;5.778;2024-03-22T03:39:11;60.15;;;28.92;;
53519;SDS011;39397;53.204;5.778;2024-03-22T03:41:37;59.38;;;27.50;;
53519;SDS011;39397;53.204;5.778;2024-03-22T03:44:02;59.35;;;28.50;;
53519;SDS011;39397;53.204;5.778;2024-03-22T03:46:28;63.08;;;29.63;;
53519;SDS011;39397;53.204;5.778;2024-03-22T03:48:54;56.42;;;30.23;;
53519;SDS011;39397;53.204;5.778;2024-03-22T03:51:19;54.15;;;27.95;;
53519;SDS011;39397;53.204;5.778;2024-03-22T03:53:45;54.45;;;27.23;;
53519;SDS011;39397;53.204;5.778;2024-03-22T03:56:11;50.63;;;25.60;;
53519;SDS011;39397;53.204;5.778;2024-03-22T03:58:36;51.72;;;23.73;;
53519;SDS011;39397;53.204;5.778;2024-03-22T04:01:06;54.00;;;24.70;;
53519;SDS011;39397;53.204;5.778;2024-03-22T04:03:32;50.92;;;24.70;;
53519;SDS011;39397;53.204;5.778;2024-03-22T04:05:57;45.53;;;22.83;;
53519;SDS011;39397;53.204;5.778;2024-03-22T04:08:26;41.42;;;23.23;;
53519;SDS011;39397;53.204;5.778;2024-03-22T04:10:53;38.13;;;22.02;;
53519;SDS011;39397;53.204;5.778;2024-03-22T04:13:21;43.05;;;20.42;;
53519;SDS011;39397;53.204;5.778;2024-03-22T04:15:46;38.05;;;20.77;;
53519;SDS011;39397;53.204;5.778;2024-03-22T04:18:12;41.53;;;19.05;;
53519;SDS011;39397;53.204;5.778;2024-03-22T04:20:38;40.53;;;20.23;;
53519;SDS011;39397;53.204;5.778;2024-03-22T04:23:03;41.22;;;19.73;;
53519;SDS011;39397;53.204;5.778;2024-03-22T04:25:29;37.58;;;20.25;;
53519;SDS011;39397;53.204;5.778;2024-03-22T04:27:55;35.65;;;19.23;;
53519;SDS011;39397;53.204;5.778;2024-03-22T04:30:20;37.28;;;18.70;;
53519;SDS011;39397;53.204;5.778;2024-03-22T04:32:46;40.15;;;19.27;;
53519;SDS011;39397;53.204;5.778;2024-03-22T04:35:12;38.50;;;18.75;;
53519;SDS011;39397;53.204;5.778;2024-03-22T04:37:38;36.95;;;17.55;;
53519;SDS011;39397;53.204;5.778;2024-03-22T04:40:04;36.60;;;17.73;;
53519;SDS011;39397;53.204;5.778;2024-03-22T04:42:30;38.30;;;17.13;;
53519;SDS011;39397;53.204;5.778;2024-03-22T04:44:56;34.22;;;17.23;;
53519;SDS011;39397;53.204;5.778;2024-03-22T04:47:23;36.15;;;16.48;;
53519;SDS011;39397;53.204;5.778;2024-03-22T04:49:48;34.28;;;16.05;;
53519;SDS011;39397;53.204;5.778;2024-03-22T04:52:14;28.73;;;15.30;;
53519;SDS011;39397;53.204;5.778;2024-03-22T04:54:40;30.33;;;14.98;;
53519;SDS011;39397;53.204;5.778;2024-03-22T04:57:06;31.98;;;13.95;;
53519;SDS011;39397;53.204;5.778;2024-03-22T04:59:31;29.05;;;13.30;;
53519;SDS011;39397;53.204;5.778;2024-03-22T05:01:57;30.40;;;13.52;;
53519;SDS011;39397;53.204;5.778;2024-03-22T05:04:23;25.63;;;12.88;;
53519;SDS011;39397;53.204;5.778;2024-03-22T05:06:49;35.42;;;15.02;;
53519;SDS011;39397;53.204;5.778;2024-03-22T05:09:14;28.10;;;13.43;;
53519;SDS011;39397;53.204;5.778;2024-03-22T05:11:40;37.30;;;13.68;;
53519;SDS011;39397;53.204;5.778;2024-03-22T05:14:06;34.58;;;14.02;;
53519;SDS011;39397;53.204;5.778;2024-03-22T05:16:32;37.35;;;14.43;;
53519;SDS011;39397;53.204;5.778;2024-03-22T05:18:57;30.60;;;14.23;;
53519;SDS011;39397;53.204;5.778;2024-03-22T05:21:24;37.42;;;13.65;;
53519;SDS011;39397;53.204;5.778;2024-03-22T05:23:49;31.95;;;13.02;;
53519;SDS011;39397;53.204;5.778;2024-03-22T05:26:15;30.42;;;13.90;;
53519;SDS011;39397;53.204;5.778;2024-03-22T05:28:41;32.90;;;14.57;;
53519;SDS011;39397;53.204;5.778;2024-03-22T05:31:07;32.90;;;14.20;;
53519;SDS011;39397;53.204;5.778;2024-03-22T05:33:33;28.90;;;12.95;;
53519;SDS011;39397;53.204;5.778;2024-03-22T05:35:58;27.00;;;13.30;;
53519;SDS011;39397;53.204;5.778;2024-03-22T05:38:24;37.42;;;15.68;;
53519;SDS011;39397;53.204;5.778;2024-03-22T05:40:50;36.10;;;13.98;;
53519;SDS011;39397;53.204;5.778;2024-03-22T05:43:15;31.58;;;15.70;;
53519;SDS011;39397;53.204;5.778;2024-03-22T05:45:44;31.58;;;13.88;;
53519;SDS011;39397;53.204;5.778;2024-03-22T05:48:13;31.40;;;14.15;;
53519;SDS011;39397;53.204;5.778;2024-03-22T05:50:40;32.40;;;14.55;;
53519;SDS011;39397;53.204;5.778;2024-03-22T05:53:06;35.88;;;15.45;;
53519;SDS011;39397;53.204;5.778;2024-03-22T05:55:31;33.83;;;14.07;;
53519;SDS011;39397;53.204;5.778;2024-03-22T05:57:57;28.50;;;13.27;;
53519;SDS011;39397;53.204;5.778;2024-03-22T06:00:23;29.27;;;14.13;;
53519;SDS011;39397;53.204;5.778;2024-03-22T06:02:48;32.38;;;14.43;;
53519;SDS011;39397;53.204;5.778;2024-03-22T06:05:14;31.13;;;13.73;;
53519;SDS011;39397;53.204;5.778;2024-03-22T06:07:42;28.05;;;12.90;;
53519;SDS011;39397;53.204;5.778;2024-03-22T06:10:08;30.45;;;13.00;;
53519;SDS011;39397;53.204;5.778;2024-03-22T06:12:37;28.20;;;14.00;;
53519;SDS011;39397;53.204;5.778;2024-03-22T06:15:03;31.27;;;13.80;;
53519;SDS011;39397;53.204;5.778;2024-03-22T06:17:31;29.25;;;14.25;;
53519;SDS011;39397;53.204;5.778;2024-03-22T06:20:00;32.45;;;14.65;;
53519;SDS011;39397;53.204;5.778;2024-03-22T06:22:26;27.52;;;14.68;;
53519;SDS011;39397;53.204;5.778;2024-03-22T06:24:52;29.13;;;13.73;;
53519;SDS011;39397;53.204;5.778;2024-03-22T06:27:18;39.72;;;16.17;;
53519;SDS011;39397;53.204;5.778;2024-03-22T06:29:44;38.67;;;15.60;;
53519;SDS011;39397;53.204;5.778;2024-03-22T06:32:11;40.38;;;15.65;;
53519;SDS011;39397;53.204;5.778;2024-03-22T06:34:37;40.80;;;15.88;;
53519;SDS011;39397;53.204;5.778;2024-03-22T06:37:03;35.10;;;16.67;;
53519;SDS011;39397;53.204;5.778;2024-03-22T06:39:29;35.33;;;15.73;;
53519;SDS011;39397;53.204;5.778;2024-03-22T06:41:55;37.58;;;15.75;;
53519;SDS011;39397;53.204;5.778;2024-03-22T06:44:21;29.73;;;14.57;;
53519;SDS011;39397;53.204;5.778;2024-03-22T06:46:47;38.35;;;18.42;;
53519;SDS011;39397;53.204;5.778;2024-03-22T06:49:12;36.75;;;17.17;;
53519;SDS011;39397;53.204;5.778;2024-03-22T06:51:38;38.10;;;18.00;;
53519;SDS011;39397;53.204;5.778;2024-03-22T06:54:04;31.13;;;16.05;;
53519;SDS011;39397;53.204;5.778;2024-03-22T06:56:30;36.42;;;17.83;;
53519;SDS011;39397;53.204;5.778;2024-03-22T06:58:55;43.10;;;18.00;;
53519;SDS011;39397;53.204;5.778;2024-03-22T07:01:21;41.85;;;18.08;;
53519;SDS011;39397;53.204;5.778;2024-03-22T07:03:47;35.47;;;16.15;;
53519;SDS011;39397;53.204;5.778;2024-03-22T07:06:13;41.92;;;18.38;;
53519;SDS011;39397;53.204;5.778;2024-03-22T07:08:40;34.42;;;17.23;;
53519;SDS011;39397;53.204;5.778;2024-03-22T07:11:06;41.13;;;17.80;;
53519;SDS011;39397;53.204;5.778;2024-03-22T07:13:32;38.10;;;19.15;;
53519;SDS011;39397;53.204;5.778;2024-03-22T07:15:58;43.38;;;19.88;;
53519;SDS011;39397;53.204;5.778;2024-03-22T07:18:24;34.67;;;17.58;;
53519;SDS011;39397;53.204;5.778;2024-03-22T07:20:49;43.55;;;19.45;;
53519;SDS011;39397;53.204;5.778;2024-03-22T07:23:15;39.10;;;19.80;;
53519;SDS011;39397;53.204;5.778;2024-03-22T07:25:41;47.50;;;18.23;;
53519;SDS011;39397;53.204;5.778;2024-03-22T07:28:13;40.95;;;17.45;;
53519;SDS011;39397;53.204;5.778;2024-03-22T07:30:39;42.30;;;20.65;;
53519;SDS011;39397;53.204;5.778;2024-03-22T07:33:05;39.13;;;18.17;;
53519;SDS011;39397;53.204;5.778;2024-03-22T07:35:30;38.17;;;17.80;;
53519;SDS011;39397;53.204;5.778;2024-03-22T07:37:56;37.85;;;17.38;;
53519;SDS011;39397;53.204;5.778;2024-03-22T07:40:22;35.65;;;15.90;;
53519;SDS011;39397;53.204;5.778;2024-03-22T07:42:47;37.72;;;16.10;;
53519;SDS011;39397;53.204;5.778;2024-03-22T07:45:13;30.75;;;15.23;;
53519;SDS011;39397;53.204;5.778;2024-03-22T07:47:39;37.47;;;17.08;;
53519;SDS011;39397;53.204;5.778;2024-03-22T07:50:07;32.55;;;16.30;;
53519;SDS011;39397;53.204;5.778;2024-03-22T07:52:33;32.65;;;15.48;;
53519;SDS011;39397;53.204;5.778;2024-03-22T07:54:59;25.88;;;14.50;;
53519;SDS011;39397;53.204;5.778;2024-03-22T07:57:27;30.15;;;14.45;;
53519;SDS011;39397;53.204;5.778;2024-03-22T07:59:56;29.60;;;15.23;;
53519;SDS011;39397;53.204;5.778;2024-03-22T08:02:24;24.77;;;13.23;;
53519;SDS011;39397;53.204;5.778;2024-03-22T08:04:50;28.60;;;14.25;;
53519;SDS011;39397;53.204;5.778;2024-03-22T08:07:15;20.70;;;12.43;;
53519;SDS011;39397;53.204;5.778;2024-03-22T08:09:41;23.40;;;13.02;;
53519;SDS011;39397;53.204;5.778;2024-03-22T08:12:07;24.02;;;12.75;;
53519;SDS011;39397;53.204;5.778;2024-03-22T08:14:32;24.02;;;12.43;;
53519;SDS011;39397;53.204;5.778;2024-03-22T08:16:58;22.55;;;13.27;;
53519;SDS011;39397;53.204;5.778;2024-03-22T08:19:24;22.15;;;11.93;;
53519;SDS011;39397;53.204;5.778;2024-03-22T08:21:49;25.40;;;13.25;;
53519;SDS011;39397;53.204;5.778;2024-03-22T08:24:15;24.25;;;12.77;;
53519;SDS011;39397;53.204;5.778;2024-03-22T08:26:42;28.05;;;12.70;;
53519;SDS011;39397;53.204;5.778;2024-03-22T08:29:10;18.63;;;11.20;;
53519;SDS011;39397;53.204;5.778;2024-03-22T08:31:36;24.17;;;12.63;;
53519;SDS011;39397;53.204;5.778;2024-03-22T08:34:02;26.15;;;13.93;;
53519;SDS011;39397;53.204;5.778;2024-03-22T08:36:29;23.98;;;13.07;;
53519;SDS011;39397;53.204;5.778;2024-03-22T08:38:54;22.48;;;12.55;;
53519;SDS011;39397;53.204;5.778;2024-03-22T08:41:20;22.23;;;13.02;;
53519;SDS011;39397;53.204;5.778;2024-03-22T08:43:46;22.35;;;11.20;;
53519;SDS011;39397;53.204;5.778;2024-03-22T08:46:12;20.17;;;12.38;;
53519;SDS011;39397;53.204;5.778;2024-03-22T08:48:37;26.08;;;12.98;;
53519;SDS011;39397;53.204;5.778;2024-03-22T08:51:03;23.33;;;12.25;;
53519;SDS011;39397;53.204;5.778;2024-03-22T08:53:29;23.83;;;12.82;;
53519;SDS011;39397;53.204;5.778;2024-03-22T08:55:55;24.27;;;13.30;;
53519;SDS011;39397;53.204;5.778;2024-03-22T08:58:20;22.33;;;11.90;;
53519;SDS011;39397;53.204;5.778;2024-03-22T09:00:46;17.83;;;11.10;;
53519;SDS011;39397;53.204;5.778;2024-03-22T09:03:12;22.10;;;12.52;;
53519;SDS011;39397;53.204;5.778;2024-03-22T09:05:39;21.27;;;11.43;;
53519;SDS011;39397;53.204;5.778;2024-03-22T09:08:06;22.27;;;10.38;;
53519;SDS011;39397;53.204;5.778;2024-03-22T09:10:32;24.33;;;11.68;;
53519;SDS011;39397;53.204;5.778;2024-03-22T09:12:58;22.33;;;11.60;;
53519;SDS011;39397;53.204;5.778;2024-03-22T09:15:24;19.70;;;10.55;;
53519;SDS011;39397;53.204;5.778;2024-03-22T09:17:51;19.13;;;10.63;;
53519;SDS011;39397;53.204;5.778;2024-03-22T09:20:17;17.90;;;10.02;;
53519;SDS011;39397;53.204;5.778;2024-03-22T09:22:43;23.17;;;11.10;;
53519;SDS011;39397;53.204;5.778;2024-03-22T09:25:08;17.77;;;9.85;;
53519;SDS011;39397;53.204;5.778;2024-03-22T09:27:34;22.92;;;8.52;;
53519;SDS011;39397;53.204;5.778;2024-03-22T09:30:00;24.00;;;9.77;;
53519;SDS011;39397;53.204;5.778;2024-03-22T09:32:29;25.70;;;10.13;;
53519;SDS011;39397;53.204;5.778;2024-03-22T09:34:55;24.15;;;9.85;;
53519;SDS011;39397;53.204;5.778;2024-03-22T09:37:21;21.38;;;9.77;;
53519;SDS011;39397;53.204;5.778;2024-03-22T09:39:46;18.20;;;8.68;;
53519;SDS011;39397;53.204;5.778;2024-03-22T09:42:18;23.63;;;9.73;;
53519;SDS011;39397;53.204;5.778;2024-03-22T09:44:47;27.20;;;9.77;;
53519;SDS011;39397;53.204;5.778;2024-03-22T09:47:17;24.17;;;10.68;;
53519;SDS011;39397;53.204;5.778;2024-03-22T09:49:43;24.45;;;10.80;;
53519;SDS011;39397;53.204;5.778;2024-03-22T09:52:12;20.75;;;9.13;;
53519;SDS011;39397;53.204;5.778;2024-03-22T09:54:40;23.20;;;8.77;;
53519;SDS011;39397;53.204;5.778;2024-03-22T09:57:08;22.05;;;8.65;;
53519;SDS011;39397;53.204;5.778;2024-03-22T09:59:38;18.40;;;6.97;;
53519;SDS011;39397;53.204;5.778;2024-03-22T10:02:04;17.73;;;7.50;;
53519;SDS011;39397;53.204;5.778;2024-03-22T10:04:35;15.73;;;7.03;;
53519;SDS011;39397;53.204;5.778;2024-03-22T10:07:02;12.20;;;6.10;;
53519;SDS011;39397;53.204;5.778;2024-03-22T10:09:31;14.90;;;5.47;;
53519;SDS011;39397;53.204;5.778;2024-03-22T10:11:58;16.05;;;4.75;;
53519;SDS011;39397;53.204;5.778;2024-03-22T10:14:24;10.05;;;4.57;;
53519;SDS011;39397;53.204;5.778;2024-03-22T10:16:52;10.90;;;4.90;;
53519;SDS011;39397;53.204;5.778;2024-03-22T10:19:22;11.57;;;3.97;;
53519;SDS011;39397;53.204;5.778;2024-03-22T10:21:59;7.97;;;3.88;;
53519;SDS011;39397;53.204;5.778;2024-03-22T10:24:29;8.63;;;4.38;;
53519;SDS011;39397;53.204;5.778;2024-03-22T10:26:55;12.23;;;3.92;;
53519;SDS011;39397;53.204;5.778;2024-03-22T10:29:21;9.50;;;4.07;;
53519;SDS011;39397;53.204;5.778;2024-03-22T10:31:48;11.35;;;4.00;;
53519;SDS011;39397;53.204;5.778;2024-03-22T10:34:15;10.77;;;4.63;;
53519;SDS011;39397;53.204;5.778;2024-03-22T10:36:42;12.05;;;4.55;;
53519;SDS011;39397;53.204;5.778;2024-03-22T10:39:09;9.23;;;3.72;;
53519;SDS011;39397;53.204;5.778;2024-03-22T10:41:38;10.07;;;4.22;;
53519;SDS011;39397;53.204;5.778;2024-03-22T10:44:03;9.57;;;4.10;;
53519;SDS011;39397;53.204;5.778;2024-03-22T10:46:30;7.00;;;3.63;;
53519;SDS011;39397;53.204;5.778;2024-03-22T10:48:59;11.82;;;4.00;;
53519;SDS011;39397;53.204;5.778;2024-03-22T10:51:29;9.13;;;3.65;;
53519;SDS011;39397;53.204;5.778;2024-03-22T10:53:56;9.30;;;4.20;;
53519;SDS011;39397;53.204;5.778;2024-03-22T10:56:24;10.23;;;4.15;;
53519;SDS011;39397;53.204;5.778;2024-03-22T10:58:50;11.30;;;4.15;;
53519;SDS011;39397;53.204;5.778;2024-03-22T11:01:24;12.80;;;4.90;;
53519;SDS011;39397;53.204;5.778;2024-03-22T11:03:51;9.55;;;4.30;;
53519;SDS011;39397;53.204;5.778;2024-03-22T11:06:28;9.50;;;3.70;;
53519;SDS011;39397;53.204;5.778;2024-03-22T11:08:55;9.35;;;3.30;;
53519;SDS011;39397;53.204;5.778;2024-03-22T11:11:27;12.32;;;3.60;;
53519;SDS011;39397;53.204;5.778;2024-03-22T11:13:54;12.23;;;4.03;;
53519;SDS011;39397;53.204;5.778;2024-03-22T11:16:21;15.30;;;4.45;;
53519;SDS011;39397;53.204;5.778;2024-03-22T11:18:47;11.50;;;3.70;;
53519;SDS011;39397;53.204;5.778;2024-03-22T11:21:14;12.93;;;3.97;;
53519;SDS011;39397;53.204;5.778;2024-03-22T11:23:40;15.23;;;3.47;;
53519;SDS011;39397;53.204;5.778;2024-03-22T11:26:06;9.88;;;3.17;;
53519;SDS011;39397;53.204;5.778;2024-03-22T11:28:35;10.00;;;3.30;;
53519;SDS011;39397;53.204;5.778;2024-03-22T11:31:01;10.75;;;3.10;;
53519;SDS011;39397;53.204;5.778;2024-03-22T11:33:27;13.52;;;3.53;;
53519;SDS011;39397;53.204;5.778;2024-03-22T11:35:53;9.48;;;3.15;;
53519;SDS011;39397;53.204;5.778;2024-03-22T11:38:19;12.32;;;3.55;;
53519;SDS011;39397;53.204;5.778;2024-03-22T11:40:44;10.57;;;3.17;;
53519;SDS011;39397;53.204;5.778;2024-03-22T11:43:11;12.63;;;3.42;;
53519;SDS011;39397;53.204;5.778;2024-03-22T11:45:40;12.88;;;3.70;;
53519;SDS011;39397;53.204;5.778;2024-03-22T11:48:08;16.00;;;3.80;;
53519;SDS011;39397;53.204;5.778;2024-03-22T11:50:35;15.82;;;3.95;;
53519;SDS011;39397;53.204;5.778;2024-03-22T11:53:02;10.48;;;3.58;;
53519;SDS011;39397;53.204;5.778;2024-03-22T11:55:30;12.93;;;3.95;;
53519;SDS011;39397;53.204;5.778;2024-03-22T11:57:59;15.35;;;3.85;;
53519;SDS011;39397;53.204;5.778;2024-03-22T12:00:25;15.02;;;4.28;;
53519;SDS011;39397;53.204;5.778;2024-03-22T12:02:52;12.55;;;3.85;;
53519;SDS011;39397;53.204;5.778;2024-03-22T12:05:18;11.73;;;4.00;;
53519;SDS011;39397;53.204;5.778;2024-03-22T12:07:45;14.20;;;4.47;;
53519;SDS011;39397;53.204;5.778;2024-03-22T12:10:11;13.10;;;4.20;;
53519;SDS011;39397;53.204;5.778;2024-03-22T12:12:37;16.75;;;4.05;;
53519;SDS011;39397;53.204;5.778;2024-03-22T12:15:03;16.20;;;4.60;;
53519;SDS011;39397;53.204;5.778;2024-03-22T12:17:30;15.57;;;3.80;;
53519;SDS011;39397;53.204;5.778;2024-03-22T12:19:55;18.70;;;5.13;;
53519;SDS011;39397;53.204;5.778;2024-03-22T12:22:24;15.52;;;4.32;;
53519;SDS011;39397;53.204;5.778;2024-03-22T12:24:50;14.52;;;4.00;;
53519;SDS011;39397;53.204;5.778;2024-03-22T12:27:16;14.88;;;4.80;;
53519;SDS011;39397;53.204;5.778;2024-03-22T12:29:42;15.07;;;4.38;;
53519;SDS011;39397;53.204;5.778;2024-03-22T12:32:08;15.45;;;4.78;;
53519;SDS011;39397;53.204;5.778;2024-03-22T12:34:35;17.77;;;4.53;;
53519;SDS011;39397;53.204;5.778;2024-03-22T12:37:01;20.67;;;4.93;;
53519;SDS011;39397;53.204;5.778;2024-03-22T12:39:27;18.08;;;4.57;;
53519;SDS011;39397;53.204;5.778;2024-03-22T12:41:53;17.42;;;3.53;;
53519;SDS011;39397;53.204;5.778;2024-03-22T12:44:19;21.58;;;6.03;;
53519;SDS011;39397;53.204;5.778;2024-03-22T12:46:45;14.48;;;4.30;;
53519;SDS011;39397;53.204;5.778;2024-03-22T12:49:11;18.20;;;4.00;;
53519;SDS011;39397;53.204;5.778;2024-03-22T12:51:38;16.25;;;4.50;;
53519;SDS011;39397;53.204;5.778;2024-03-22T12:54:04;13.90;;;4.15;;
53519;SDS011;39397;53.204;5.778;2024-03-22T12:56:30;19.90;;;4.38;;
53519;SDS011;39397;53.204;5.778;2024-03-22T12:58:56;16.13;;;3.63;;
53519;SDS011;39397;53.204;5.778;2024-03-22T13:01:22;20.15;;;3.85;;
53519;SDS011;39397;53.204;5.778;2024-03-22T13:03:48;24.75;;;3.97;;
53519;SDS011;39397;53.204;5.778;2024-03-22T13:06:13;20.60;;;6.40;;
53519;SDS011;39397;53.204;5.778;2024-03-22T13:08:39;19.65;;;4.43;;
53519;SDS011;39397;53.204;5.778;2024-03-22T13:11:05;20.02;;;5.75;;
53519;SDS011;39397;53.204;5.778;2024-03-22T13:13:34;14.65;;;3.22;;
53519;SDS011;39397;53.204;5.778;2024-03-22T13:16:00;22.30;;;4.10;;
53519;SDS011;39397;53.204;5.778;2024-03-22T13:18:30;20.30;;;4.32;;
53519;SDS011;39397;53.204;5.778;2024-03-22T13:20:56;19.45;;;4.57;;
53519;SDS011;39397;53.204;5.778;2024-03-22T13:23:22;18.38;;;3.97;;
53519;SDS011;39397;53.204;5.778;2024-03-22T13:25:48;16.80;;;4.00;;
53519;SDS011;39397;53.204;5.778;2024-03-22T13:28:14;15.07;;;4.28;;
53519;SDS011;39397;53.204;5.778;2024-03-22T13:30:39;17.08;;;4.00;;
53519;SDS011;39397;53.204;5.778;2024-03-22T13:33:05;22.52;;;4.25;;
53519;SDS011;39397;53.204;5.778;2024-03-22T13:35:33;16.05;;;3.90;;
53519;SDS011;39397;53.204;5.778;2024-03-22T13:37:59;18.13;;;3.92;;
53519;SDS011;39397;53.204;5.778;2024-03-22T13:40:26;23.80;;;4.32;;
53519;SDS011;39397;53.204;5.778;2024-03-22T13:42:54;16.60;;;5.00;;
53519;SDS011;39397;53.204;5.778;2024-03-22T13:45:20;20.20;;;4.60;;
53519;SDS011;39397;53.204;5.778;2024-03-22T13:47:46;21.85;;;3.75;;
53519;SDS011;39397;53.204;5.778;2024-03-22T13:50:12;20.13;;;4.40;;
53519;SDS011;39397;53.204;5.778;2024-03-22T13:52:38;18.17;;;4.55;;
53519;SDS011;39397;53.204;5.778;2024-03-22T13:55:04;18.17;;;3.70;;
53519;SDS011;39397;53.204;5.778;2024-03-22T13:57:31;22.67;;;3.70;;
53519;SDS011;39397;53.204;5.778;2024-03-22T13:59:56;19.20;;;4.10;;
53519;SDS011;39397;53.204;5.778;2024-03-22T14:02:23;19.85;;;3.70;;
53519;SDS011;39397;53.204;5.778;2024-03-22T14:04:48;21.35;;;3.75;;
53519;SDS011;39397;53.204;5.778;2024-03-22T14:07:14;16.13;;;3.38;;
53519;SDS011;39397;53.204;5.778;2024-03-22T14:09:40;18.05;;;4.70;;
53519;SDS011;39397;53.204;5.778;2024-03-22T14:12:06;19.60;;;4.55;;
53519;SDS011;39397;53.204;5.778;2024-03-22T14:14:35;19.13;;;3.45;;
53519;SDS011;39397;53.204;5.778;2024-03-22T14:17:00;23.77;;;5.07;;
53519;SDS011;39397;53.204;5.778;2024-03-22T14:19:26;24.25;;;4.43;;
53519;SDS011;39397;53.204;5.778;2024-03-22T14:21:52;20.88;;;4.00;;